Time;durP1;ratioP1;P1;durP2;ratioP2;P2;SDS_P1;SDS_P2;PMS_P1;PMS_P2;Temp;Humidity;BMP_temperature;BMP_pressure;BME280_temperature;BME280_humidity;BME280_pressure;Samples;Min_cycle;Max_cycle;Signal;HPM_P1;HPM_P2
2021/07/20 00:00:54;;;;;;;17.60;12.40;;;;;;;18.15;64.24;97545.31;5059628;28;20059;-78
2021/07/20 00:03:19;;;;;;;19.58;12.52;;;;;;;18.11;63.83;97539.81;5051991;28;20741;-79
2021/07/20 00:05:45;;;;;;;20.50;13.20;;;;;;;18.06;64.01;97542.53;5070061;28;20464;-78
2021/07/20 00:08:11;;;;;;;18.92;13.10;;;;;;;17.94;64.43;97532.41;5059399;28;20378;-77
2021/07/20 00:10:53;;;;;;;18.13;12.25;;;;;;;17.75;65.19;97532.34;5042795;28;20035;-78
2021/07/20 00:13:18;;;;;;;20.63;12.45;;;;;;;17.86;64.87;97530.38;5059300;28;20639;-78
2021/07/20 00:15:44;;;;;;;19.15;12.27;;;;;;;17.87;64.74;97533.78;5076706;28;20039;-78
2021/07/20 00:18:14;;;;;;;21.58;13.48;;;;;;;17.73;64.93;97539.72;5060245;28;20103;-79
2021/07/20 00:20:40;;;;;;;20.02;12.43;;;;;;;17.77;65.07;97532.84;5074099;28;20043;-79
2021/07/20 00:23:06;;;;;;;18.45;12.50;;;;;;;17.74;64.96;97535.25;5059642;28;20024;-78
2021/07/20 00:25:32;;;;;;;17.45;12.57;;;;;;;17.74;64.66;97541.28;5059468;28;20032;-78
2021/07/20 00:27:57;;;;;;;17.92;13.07;;;;;;;17.70;65.43;97545.56;5075679;28;20051;-78
2021/07/20 00:30:23;;;;;;;20.90;13.88;;;;;;;17.65;65.91;97539.56;5035748;28;20036;-79
2021/07/20 00:32:49;;;;;;;21.70;13.60;;;;;;;17.65;66.11;97536.91;5058016;28;20031;-78
2021/07/20 00:35:14;;;;;;;18.40;13.32;;;;;;;17.64;65.82;97528.25;5058472;28;20073;-78
2021/07/20 00:37:40;;;;;;;19.92;13.23;;;;;;;17.61;65.66;97526.16;5075141;28;20027;-79
2021/07/20 00:40:09;;;;;;;18.58;13.82;;;;;;;17.46;65.77;97523.72;5041873;28;20023;-79
2021/07/20 00:42:34;;;;;;;18.58;12.43;;;;;;;17.50;65.84;97527.38;5073655;28;20028;-78
2021/07/20 00:45:00;;;;;;;18.52;12.82;;;;;;;17.47;66.23;97530.56;5053751;28;20024;-78
2021/07/20 00:47:25;;;;;;;20.00;12.90;;;;;;;17.41;66.05;97522.72;5075732;28;20522;-78
2021/07/20 00:49:51;;;;;;;20.60;13.35;;;;;;;17.42;66.10;97532.16;5075254;28;20035;-78
2021/07/20 00:52:16;;;;;;;18.80;12.48;;;;;;;17.40;65.68;97534.28;5042352;28;20055;-78
2021/07/20 00:54:42;;;;;;;21.70;13.30;;;;;;;17.43;65.95;97525.06;5075712;28;20467;-78
2021/07/20 00:57:08;;;;;;;20.67;13.52;;;;;;;17.46;65.80;97537.66;5093908;28;20043;-78
2021/07/20 00:59:37;;;;;;;20.00;14.07;;;;;;;17.44;65.91;97531.88;5055332;28;20082;-78
2021/07/20 01:02:03;;;;;;;18.60;12.48;;;;;;;17.41;65.88;97532.47;5039376;28;20098;-78
2021/07/20 01:04:29;;;;;;;21.48;13.00;;;;;;;17.37;66.31;97531.44;5055152;28;20037;-78
2021/07/20 01:06:56;;;;;;;17.00;12.60;;;;;;;17.34;66.10;97532.78;5058009;28;20032;-78
2021/07/20 01:09:22;;;;;;;19.17;12.80;;;;;;;17.44;66.11;97531.88;5041809;28;20032;-78
2021/07/20 01:11:48;;;;;;;19.30;12.90;;;;;;;17.41;65.53;97533.25;5041302;28;20115;-78
2021/07/20 01:14:13;;;;;;;19.15;12.80;;;;;;;17.42;65.66;97529.53;5058298;28;20412;-78
2021/07/20 01:16:39;;;;;;;20.80;12.73;;;;;;;17.40;65.58;97531.66;5075044;28;20036;-78
2021/07/20 01:19:06;;;;;;;19.75;13.27;;;;;;;17.40;65.41;97533.50;5075643;28;20144;-78
2021/07/20 01:21:34;;;;;;;17.70;11.88;;;;;;;17.28;66.09;97533.91;5068633;28;20072;-78
2021/07/20 01:23:59;;;;;;;18.88;13.75;;;;;;;17.25;65.84;97526.56;5071589;28;20103;-78
2021/07/20 01:26:25;;;;;;;17.98;12.43;;;;;;;17.27;66.09;97524.41;5056642;28;20095;-78
2021/07/20 01:28:52;;;;;;;18.02;12.20;;;;;;;17.27;65.76;97532.31;5074954;28;20028;-78
2021/07/20 01:31:20;;;;;;;20.52;13.85;;;;;;;17.18;65.97;97518.22;5054970;28;20028;-78
2021/07/20 01:33:49;;;;;;;21.38;14.80;;;;;;;17.14;66.40;97527.72;5072447;28;20035;-78
2021/07/20 01:36:16;;;;;;;18.13;11.70;;;;;;;17.17;66.12;97524.53;5058641;28;20398;-78
2021/07/20 01:38:45;;;;;;;19.83;13.27;;;;;;;17.04;66.54;97521.47;5058015;28;20031;-78
2021/07/20 01:41:14;;;;;;;20.45;13.10;;;;;;;17.01;66.61;97508.09;5037924;28;20495;-78
2021/07/20 01:43:43;;;;;;;19.30;13.38;;;;;;;17.06;66.27;97526.47;5075047;28;20735;-78
2021/07/20 01:46:09;;;;;;;17.90;12.57;;;;;;;16.99;66.56;97513.63;5067759;28;20413;-78
2021/07/20 01:48:36;;;;;;;18.05;13.10;;;;;;;16.97;67.08;97528.16;5075088;28;20103;-78
2021/07/20 01:51:02;;;;;;;21.75;13.40;;;;;;;16.93;66.96;97527.91;5037322;28;20024;-78
2021/07/20 01:53:29;;;;;;;21.25;14.48;;;;;;;16.85;67.31;97523.25;5065580;28;20063;-78
2021/07/20 01:55:54;;;;;;;20.45;12.95;;;;;;;16.80;67.03;97512.75;5041218;28;20019;-78
2021/07/20 01:58:20;;;;;;;21.42;12.77;;;;;;;16.80;67.45;97515.38;5074592;28;20552;-78
2021/07/20 02:00:46;;;;;;;19.67;13.68;;;;;;;16.72;67.12;97526.47;5075153;28;20069;-78
2021/07/20 02:03:58;;;;;;;19.15;13.30;;;;;;;16.56;67.42;97520.56;5073719;28;20100;-78
2021/07/20 02:09:12;;;;;;;20.20;13.63;;;;;;;16.32;68.52;97518.59;5074030;28;20059;-78
2021/07/20 02:11:39;;;;;;;20.83;13.90;;;;;;;16.50;68.50;97522.41;5040455;28;20115;-78
2021/07/20 02:14:09;;;;;;;19.83;13.40;;;;;;;16.45;68.10;97517.19;5074455;28;20490;-78
2021/07/20 02:16:39;;;;;;;19.85;12.60;;;;;;;16.34;68.32;97515.72;5057780;28;20095;-79
2021/07/20 02:19:07;;;;;;;19.70;13.25;;;;;;;16.42;68.26;97518.53;5074061;28;20066;-79
2021/07/20 02:21:35;;;;;;;19.60;13.35;;;;;;;16.37;68.59;97517.81;5054725;28;20085;-78
2021/07/20 02:24:01;;;;;;;21.63;13.52;;;;;;;16.44;68.33;97526.94;5073936;28;20063;-78
2021/07/20 02:26:26;;;;;;;18.95;12.93;;;;;;;16.39;67.87;97520.94;5073833;28;20504;-78
2021/07/20 02:28:53;;;;;;;21.27;13.65;;;;;;;16.41;67.94;97526.69;5053515;28;20116;-78
2021/07/20 02:31:19;;;;;;;20.45;13.15;;;;;;;16.38;68.08;97517.53;5073130;28;20038;-78
2021/07/20 02:33:46;;;;;;;20.67;13.55;;;;;;;16.39;67.71;97515.69;5074169;28;20527;-78
2021/07/20 02:36:12;;;;;;;22.10;12.98;;;;;;;16.34;67.57;97516.47;5057081;28;20547;-78
2021/07/20 02:38:38;;;;;;;20.77;13.23;;;;;;;16.29;67.94;97516.53;5036541;28;20029;-78
2021/07/20 02:41:05;;;;;;;19.00;12.75;;;;;;;16.26;68.31;97517.06;5053119;28;20038;-79
2021/07/20 02:43:30;;;;;;;20.67;13.90;;;;;;;16.28;68.28;97513.13;5039952;28;20360;-78
2021/07/20 02:45:56;;;;;;;20.13;12.90;;;;;;;16.21;68.49;97507.38;5040416;28;20035;-78
2021/07/20 02:48:23;;;;;;;20.85;13.60;;;;;;;16.28;68.65;97510.50;5050036;28;20696;-78
2021/07/20 02:50:50;;;;;;;20.48;12.93;;;;;;;16.25;68.58;97507.63;5054789;28;20131;-78
2021/07/20 02:53:15;;;;;;;18.77;12.10;;;;;;;16.24;68.53;97506.81;5046780;28;20082;-78
2021/07/20 02:55:42;;;;;;;17.13;12.10;;;;;;;16.24;68.41;97501.56;5055206;28;20033;-78
2021/07/20 02:58:07;;;;;;;19.85;13.20;;;;;;;16.22;68.85;97508.94;5058892;28;20119;-78
2021/07/20 03:00:33;;;;;;;19.58;12.60;;;;;;;16.24;68.37;97508.66;5044086;28;20088;-79
2021/07/20 03:02:58;;;;;;;19.98;12.45;;;;;;;16.28;68.56;97514.97;5076899;28;20098;-78
2021/07/20 03:05:26;;;;;;;21.45;12.73;;;;;;;16.28;68.73;97504.47;5075937;28;20032;-78
2021/07/20 03:07:55;;;;;;;21.08;11.88;;;;;;;16.19;68.40;97498.19;5043614;28;20035;-79
2021/07/20 03:10:24;;;;;;;18.05;12.75;;;;;;;16.25;68.05;97494.47;5093937;28;20043;-78
2021/07/20 03:12:52;;;;;;;19.23;12.77;;;;;;;16.24;68.14;97500.78;5060239;28;20036;-78
2021/07/20 03:15:18;;;;;;;19.02;12.65;;;;;;;16.27;68.27;97501.03;5058616;28;20041;-78
2021/07/20 03:17:44;;;;;;;19.70;12.48;;;;;;;16.31;67.83;97514.41;5037276;28;20027;-78
2021/07/20 03:20:11;;;;;;;21.13;12.88;;;;;;;16.29;67.81;97504.16;5077231;28;20093;-78
2021/07/20 03:22:38;;;;;;;18.20;11.77;;;;;;;16.23;67.88;97501.88;5076914;28;20583;-78
2021/07/20 03:25:06;;;;;;;19.65;13.32;;;;;;;16.20;68.17;97497.94;5058146;28;20028;-78
2021/07/20 03:27:32;;;;;;;18.80;12.07;;;;;;;16.25;67.98;97503.16;5077357;28;20054;-78
2021/07/20 03:30:02;;;;;;;15.35;11.32;;;;;;;16.24;67.73;97501.56;5077725;28;20085;-78
2021/07/20 03:32:28;;;;;;;18.55;12.20;;;;;;;16.38;67.68;97506.22;5060630;28;20036;-78
2021/07/20 03:34:54;;;;;;;18.90;12.45;;;;;;;16.31;67.92;97487.34;5070536;28;20499;-78
2021/07/20 03:37:23;;;;;;;18.60;12.32;;;;;;;16.31;67.95;97501.25;5071027;28;20042;-78
2021/07/20 03:39:52;;;;;;;18.63;11.60;;;;;;;16.39;67.61;97503.31;5039263;28;20028;-78
2021/07/20 03:42:19;;;;;;;18.95;12.48;;;;;;;16.39;67.22;97502.53;5054212;28;20046;-78
2021/07/20 03:44:45;;;;;;;17.35;11.80;;;;;;;16.42;67.70;97502.78;5060836;28;20089;-78
2021/07/20 03:47:10;;;;;;;18.63;12.13;;;;;;;16.36;67.90;97503.06;5077242;28;20430;-78
2021/07/20 03:49:36;;;;;;;17.58;12.20;;;;;;;16.32;68.06;97502.84;5060764;28;20881;-78
2021/07/20 03:52:02;;;;;;;20.63;12.85;;;;;;;16.20;67.49;97492.66;5037493;28;20163;-78
2021/07/20 03:54:30;;;;;;;19.92;12.85;;;;;;;16.16;67.55;97504.78;5075386;28;20036;-78
2021/07/20 03:56:56;;;;;;;19.38;13.18;;;;;;;16.10;67.60;97503.25;5059312;28;20080;-78
2021/07/20 03:59:24;;;;;;;18.83;12.13;;;;;;;16.02;67.38;97514.31;5060304;28;20111;-77
2021/07/20 04:01:50;;;;;;;19.25;12.43;;;;;;;16.02;67.37;97509.88;5076733;28;20020;-78
2021/07/20 04:04:18;;;;;;;17.98;11.93;;;;;;;15.98;67.45;97513.28;5088449;28;20360;-78
2021/07/20 04:06:43;;;;;;;19.38;12.15;;;;;;;15.95;67.91;97509.34;5076921;28;20035;-78
2021/07/20 04:09:11;;;;;;;22.13;12.95;;;;;;;15.86;67.60;97508.34;5075993;28;20058;-78
2021/07/20 04:11:37;;;;;;;17.92;13.43;;;;;;;15.88;67.59;97503.63;5056199;28;20059;-78
2021/07/20 04:14:06;;;;;;;20.60;12.98;;;;;;;15.88;68.56;97514.13;5057826;28;20039;-78
2021/07/20 04:16:33;;;;;;;19.92;12.63;;;;;;;15.88;68.08;97507.00;5038710;28;20047;-78
2021/07/20 04:18:59;;;;;;;18.35;12.18;;;;;;;15.96;67.78;97512.78;5058133;28;20028;-78
2021/07/20 04:21:25;;;;;;;15.77;11.20;;;;;;;15.94;67.61;97512.25;5041385;28;20054;-78
2021/07/20 04:23:51;;;;;;;16.75;12.50;;;;;;;15.89;68.34;97499.94;5076299;28;20032;-78
2021/07/20 04:26:18;;;;;;;18.65;11.90;;;;;;;15.94;67.92;97523.56;5056396;28;20667;-78
2021/07/20 04:28:43;;;;;;;19.52;13.02;;;;;;;15.94;67.87;97518.31;5054148;28;20504;-80
2021/07/20 04:31:09;;;;;;;21.15;13.02;;;;;;;15.87;68.24;97510.72;5072880;28;20020;-78
2021/07/20 04:33:35;;;;;;;18.95;12.23;;;;;;;15.92;68.13;97520.41;5059420;28;20032;-78
2021/07/20 04:36:01;;;;;;;16.23;11.93;;;;;;;16.03;67.98;97510.63;5043175;28;20035;-78
2021/07/20 04:38:32;;;;;;;19.40;13.00;;;;;;;15.88;67.86;97522.78;5042828;28;20024;-78
2021/07/20 04:40:58;;;;;;;17.60;12.02;;;;;;;16.07;67.45;97517.72;5075385;28;21004;-77
2021/07/20 04:43:24;;;;;;;17.95;11.75;;;;;;;16.18;67.32;97518.44;5042055;28;20043;-77
2021/07/20 04:45:52;;;;;;;19.42;12.45;;;;;;;16.08;67.38;97514.00;5041890;28;20031;-78
2021/07/20 04:48:18;;;;;;;15.82;10.43;;;;;;;16.22;67.67;97516.03;5058710;28;20031;-77
2021/07/20 04:50:44;;;;;;;16.90;11.20;;;;;;;16.28;67.72;97522.84;5073518;28;20031;-77
2021/07/20 04:53:11;;;;;;;19.85;13.05;;;;;;;16.28;68.01;97518.38;5059326;28;20025;-78
2021/07/20 04:55:38;;;;;;;22.02;12.52;;;;;;;16.42;68.58;97523.78;5076397;28;20043;-78
2021/07/20 04:58:04;;;;;;;15.70;11.48;;;;;;;16.52;68.28;97522.94;5069768;28;20054;-78
2021/07/20 05:00:30;;;;;;;20.63;12.73;;;;;;;16.60;68.30;97527.59;5073880;28;20411;-78
2021/07/20 05:02:57;;;;;;;18.65;12.95;;;;;;;16.64;67.81;97536.53;5053761;28;20020;-80
2021/07/20 05:05:24;;;;;;;19.52;12.70;;;;;;;16.74;67.52;97535.66;5037652;28;20119;-77
2021/07/20 05:07:56;;;;;;;20.13;13.80;;;;;;;16.75;67.40;97534.59;5059432;28;20035;-77
2021/07/20 05:10:26;;;;;;;22.45;14.25;;;;;;;16.77;67.28;97535.09;5078074;28;20038;-77
2021/07/20 05:12:52;;;;;;;18.27;12.48;;;;;;;16.97;67.23;97536.81;5070862;28;20043;-78
2021/07/20 05:15:19;;;;;;;18.70;12.80;;;;;;;16.98;67.16;97538.41;5068086;28;20032;-77
2021/07/20 05:17:46;;;;;;;22.45;13.20;;;;;;;17.09;66.81;97531.19;5057284;28;20020;-78
2021/07/20 05:20:19;;;;;;;20.48;13.50;;;;;;;17.08;66.56;97539.34;5040045;28;20085;-78
2021/07/20 05:22:45;;;;;;;19.08;11.98;;;;;;;17.27;66.26;97531.53;5068718;28;20050;-78
2021/07/20 05:25:12;;;;;;;19.55;12.57;;;;;;;17.27;66.29;97550.72;5090943;28;20070;-78
2021/07/20 05:27:46;;;;;;;17.25;12.40;;;;;;;17.23;66.49;97547.88;5033890;28;20036;-78
2021/07/20 05:30:12;;;;;;;19.17;11.95;;;;;;;17.48;66.19;97550.53;5073493;28;20101;-78
2021/07/20 05:32:41;;;;;;;19.17;12.30;;;;;;;17.34;66.27;97545.94;5072841;28;20040;-78
2021/07/20 05:35:12;;;;;;;19.83;14.15;;;;;;;17.35;66.45;97552.75;5091776;28;20054;-78
2021/07/20 05:37:40;;;;;;;21.15;13.40;;;;;;;17.57;66.19;97556.78;5073679;28;20088;-78
2021/07/20 05:40:15;;;;;;;19.90;12.73;;;;;;;17.48;66.21;97550.53;5073639;28;20054;-78
2021/07/20 05:42:41;;;;;;;18.20;12.50;;;;;;;17.59;65.99;97546.72;5053640;28;20499;-78
2021/07/20 05:45:07;;;;;;;21.95;13.02;;;;;;;17.69;65.74;97561.66;5054033;28;20069;-78
2021/07/20 05:47:34;;;;;;;21.05;13.10;;;;;;;17.69;65.38;97553.75;5050787;28;20391;-78
2021/07/20 05:50:00;;;;;;;18.70;12.02;;;;;;;17.75;65.58;97565.78;5039534;28;20035;-78
2021/07/20 05:52:26;;;;;;;19.00;12.15;;;;;;;17.72;65.54;97561.09;5053891;28;20063;-78
2021/07/20 05:54:52;;;;;;;19.95;12.65;;;;;;;17.75;65.52;97563.94;5064263;28;20074;-78
2021/07/20 05:57:18;;;;;;;20.90;13.65;;;;;;;17.83;65.13;97572.28;5038667;28;20074;-78
2021/07/20 05:59:45;;;;;;;21.05;12.80;;;;;;;17.78;65.18;97560.72;5055186;28;20462;-78
2021/07/20 06:02:12;;;;;;;19.20;12.63;;;;;;;17.83;64.85;97559.13;5053160;28;20456;-78
2021/07/20 06:04:38;;;;;;;21.40;13.48;;;;;;;17.84;65.04;97579.09;5036758;28;20039;-79
2021/07/20 06:07:04;;;;;;;19.83;13.70;;;;;;;17.88;65.33;97577.53;5071685;28;20024;-78
2021/07/20 06:09:33;;;;;;;22.60;13.10;;;;;;;17.94;65.17;97576.38;5050014;28;20466;-79
2021/07/20 06:12:00;;;;;;;19.38;12.90;;;;;;;18.12;65.01;97583.53;5071411;28;20035;-79
2021/07/20 06:14:26;;;;;;;19.63;12.43;;;;;;;18.23;64.30;97573.66;5053395;28;20032;-79
2021/07/20 06:16:52;;;;;;;20.02;12.20;;;;;;;18.40;64.12;97578.41;5036739;28;20051;-79
2021/07/20 06:19:17;;;;;;;18.20;12.18;;;;;;;18.56;63.76;97575.56;5048497;28;20036;-78
2021/07/20 06:21:44;;;;;;;18.23;12.23;;;;;;;18.63;63.74;97576.78;5071033;28;20028;-78
2021/07/20 06:24:10;;;;;;;17.27;12.30;;;;;;;18.82;63.13;97578.63;5069219;28;20031;-78
2021/07/20 06:26:36;;;;;;;17.98;11.75;;;;;;;18.81;62.65;97580.47;5071114;28;20073;-79
2021/07/20 06:29:03;;;;;;;18.98;12.57;;;;;;;18.95;62.07;97585.81;5045626;28;20692;-79
2021/07/20 06:31:30;;;;;;;18.98;11.93;;;;;;;19.23;61.54;97593.81;5054560;28;20393;-79
2021/07/20 06:33:56;;;;;;;18.25;12.18;;;;;;;19.17;61.21;97581.78;5054645;28;20024;-79
2021/07/20 06:36:23;;;;;;;18.60;11.98;;;;;;;19.67;60.38;97586.44;5048360;28;20055;-79
2021/07/20 06:38:49;;;;;;;16.88;11.52;;;;;;;19.80;59.26;97588.34;5071448;28;20039;-79
2021/07/20 06:41:17;;;;;;;18.73;11.60;;;;;;;19.87;58.79;97591.38;5070662;28;20036;-79
2021/07/20 06:43:44;;;;;;;16.42;12.23;;;;;;;20.27;57.75;97594.28;5058729;28;20079;-78
2021/07/20 06:46:12;;;;;;;16.10;11.18;;;;;;;20.32;58.14;97572.19;5088532;28;20394;-79
2021/07/20 06:48:38;;;;;;;15.88;11.50;;;;;;;20.49;57.67;97590.09;5071152;28;20502;-78
2021/07/20 06:51:04;;;;;;;17.80;11.05;;;;;;;20.74;56.81;97594.84;5077044;28;20089;-79
2021/07/20 06:53:29;;;;;;;15.07;10.57;;;;;;;20.86;56.70;97588.22;5054102;28;20033;-79
2021/07/20 06:56:01;;;;;;;15.82;10.40;;;;;;;20.81;56.41;97596.28;5049879;28;20028;-79
2021/07/20 06:58:27;;;;;;;14.38;10.23;;;;;;;21.11;56.02;97590.25;5043151;28;20063;-78
2021/07/20 07:00:58;;;;;;;13.85;10.23;;;;;;;21.38;55.17;97588.50;5051580;28;20043;-79
2021/07/20 07:03:33;;;;;;;13.82;10.60;;;;;;;21.61;54.89;97591.13;5032554;28;20063;-79
2021/07/20 07:06:01;;;;;;;15.48;10.25;;;;;;;21.82;54.07;97592.16;5063415;28;20109;-78
2021/07/20 07:08:27;;;;;;;16.27;10.90;;;;;;;21.74;53.94;97590.25;5037158;28;20036;-78
2021/07/20 07:10:54;;;;;;;16.08;10.85;;;;;;;21.74;54.42;97592.91;5035709;28;20028;-78
2021/07/20 07:13:21;;;;;;;13.80;10.57;;;;;;;22.18;53.04;97599.09;5037414;28;20027;-78
2021/07/20 07:15:47;;;;;;;15.13;10.70;;;;;;;22.15;53.42;97597.06;5054247;28;20387;-78
2021/07/20 07:18:13;;;;;;;14.88;10.98;;;;;;;22.49;53.03;97592.91;5070508;28;20031;-77
2021/07/20 07:20:39;;;;;;;15.23;10.93;;;;;;;22.52;51.78;97592.31;5052730;28;20370;-78
2021/07/20 07:23:05;;;;;;;15.43;10.43;;;;;;;22.65;51.97;97608.38;5070439;28;20020;-78
2021/07/20 07:25:31;;;;;;;14.75;10.18;;;;;;;22.86;51.81;97605.88;5070580;28;20024;-78
2021/07/20 07:27:57;;;;;;;14.18;9.77;;;;;;;23.02;50.64;97593.66;5053592;28;20038;-78
2021/07/20 07:30:23;;;;;;;13.85;9.80;;;;;;;;;;5068938;28;20031;-77
2021/07/20 07:32:49;;;;;;;14.18;10.25;;;;;;;23.05;49.85;97597.56;5070420;28;20032;-78
2021/07/20 07:35:15;;;;;;;13.95;10.07;;;;;;;23.45;48.82;97603.44;5029086;28;20070;-79
2021/07/20 07:37:42;;;;;;;14.88;10.88;;;;;;;23.25;49.24;97606.78;5054605;28;20041;-79
2021/07/20 07:40:08;;;;;;;15.95;10.50;;;;;;;23.17;48.87;97606.47;5034963;28;20162;-79
2021/07/20 07:42:38;;;;;;;13.88;9.52;;;;;;;23.43;48.51;97610.16;5053228;28;20028;-79
2021/07/20 07:45:06;;;;;;;12.85;9.65;;;;;;;22.95;48.16;97611.97;5038649;28;20062;-78
2021/07/20 07:47:33;;;;;;;15.07;9.40;;;;;;;23.27;49.33;97610.69;5072108;28;20042;-79
2021/07/20 07:49:59;;;;;;;14.73;10.00;;;;;;;23.30;47.57;97599.41;5029787;28;20032;-78
2021/07/20 07:52:24;;;;;;;14.57;10.00;;;;;;;23.55;47.47;97595.09;5032008;28;20031;-79
2021/07/20 07:54:50;;;;;;;16.20;10.60;;;;;;;23.27;47.17;97605.38;5033137;28;20029;-78
2021/07/20 07:57:18;;;;;;;11.77;9.70;;;;;;;23.57;46.73;97608.09;5069062;28;20029;-78
2021/07/20 07:59:46;;;;;;;13.73;9.68;;;;;;;23.49;46.93;97611.53;5070221;28;20648;-79
2021/07/20 08:02:15;;;;;;;11.93;9.45;;;;;;;24.08;45.92;97616.16;5054979;28;20418;-78
2021/07/20 08:04:42;;;;;;;13.32;10.20;;;;;;;23.84;45.56;97606.13;5066660;28;20032;-78
2021/07/20 08:07:08;;;;;;;13.93;10.38;;;;;;;23.28;46.47;97617.53;5046580;28;20043;-78
2021/07/20 08:09:33;;;;;;;13.45;10.35;;;;;;;23.75;46.34;97611.44;5066769;28;20627;-78
2021/07/20 08:12:00;;;;;;;12.43;9.27;;;;;;;23.93;46.52;97614.84;5086505;28;20028;-78
2021/07/20 08:14:27;;;;;;;16.55;11.02;;;;;;;23.63;46.36;97619.31;5040213;28;20119;-78
2021/07/20 08:16:58;;;;;;;12.95;10.13;;;;;;;23.66;46.81;97616.03;5056260;28;20035;-78
2021/07/20 08:19:27;;;;;;;12.95;10.25;;;;;;;23.90;45.37;97618.13;5069165;28;20517;-78
2021/07/20 08:21:59;;;;;;;13.63;10.27;;;;;;;24.12;45.39;97617.06;5035936;28;20024;-78
2021/07/20 08:24:25;;;;;;;16.30;10.95;;;;;;;23.99;46.42;97629.53;5052523;28;20048;-78
2021/07/20 08:27:13;;;;;;;13.40;9.52;;;;;;;23.58;45.92;97620.28;5056512;28;20379;-78
2021/07/20 08:29:43;;;;;;;16.35;10.43;;;;;;;23.15;47.48;97624.63;5066372;28;20068;-79
2021/07/20 08:32:17;;;;;;;14.85;10.40;;;;;;;23.46;48.36;97618.28;5042798;28;20400;-78
2021/07/20 08:34:46;;;;;;;13.77;10.75;;;;;;;23.71;46.23;97619.28;5033077;28;20024;-79
2021/07/20 08:37:14;;;;;;;23.13;11.60;;;;;;;24.12;46.27;97612.53;5065883;28;20487;-79
2021/07/20 08:39:40;;;;;;;13.13;10.15;;;;;;;24.37;44.89;97620.69;5060431;28;20486;-79
2021/07/20 08:42:08;;;;;;;16.10;9.68;;;;;;;24.59;43.78;97618.81;5054144;28;20051;-78
2021/07/20 08:44:52;;;;;;;15.07;10.48;;;;;;;24.60;43.86;97612.41;5083962;28;20089;-77
2021/07/20 08:47:35;;;;;;;12.65;9.48;;;;;;;24.79;43.09;97618.03;5060722;28;20486;-78
2021/07/20 08:50:16;;;;;;;12.25;10.32;;;;;;;24.74;42.58;97618.22;5055429;28;20024;-78
2021/07/20 08:52:46;;;;;;;12.43;9.52;;;;;;;24.58;42.12;97615.38;5072224;28;20043;-78
2021/07/20 08:55:14;;;;;;;11.93;9.52;;;;;;;24.39;42.87;97615.81;5052493;28;20107;-78
2021/07/20 08:57:47;;;;;;;14.10;9.77;;;;;;;25.10;44.29;97611.47;5048672;28;20069;-79
2021/07/20 09:00:18;;;;;;;12.88;10.10;;;;;;;25.52;41.23;97614.03;5064389;28;20122;-78
2021/07/20 09:03:07;;;;;;;14.02;11.23;;;;;;;25.35;41.20;97608.91;5049506;28;20352;-78
2021/07/20 09:05:48;;;;;;;11.60;9.55;;;;;;;25.68;41.74;97616.06;5082213;28;20517;-78
2021/07/20 09:08:18;;;;;;;14.75;10.23;;;;;;;25.48;41.57;97621.16;5069272;28;20036;-78
2021/07/20 09:11:12;;;;;;;13.23;9.88;;;;;;;25.53;41.35;97618.28;5049808;28;20034;-79
2021/07/20 09:13:40;;;;;;;14.05;10.00;;;;;;;25.10;41.14;97608.03;5034164;28;20136;-78
2021/07/20 09:16:11;;;;;;;14.48;10.43;;;;;;;25.21;42.16;97620.63;5046215;28;20446;-78
2021/07/20 09:18:46;;;;;;;12.82;10.13;;;;;;;25.64;41.11;97618.59;5054322;28;20027;-78
2021/07/20 09:21:14;;;;;;;14.27;9.20;;;;;;;25.90;40.97;97620.94;5032193;28;20145;-78
2021/07/20 09:23:47;;;;;;;12.35;9.55;;;;;;;26.09;41.06;97611.63;5089187;28;20057;-79
2021/07/20 09:26:19;;;;;;;13.02;10.82;;;;;;;26.51;40.16;97624.66;5038645;28;20047;-79
2021/07/20 09:29:03;;;;;;;12.52;9.40;;;;;;;26.44;41.27;97616.44;5051292;28;20032;-79
2021/07/20 09:31:47;;;;;;;11.75;9.10;;;;;;;26.89;38.84;97615.44;5078592;28;20031;-78
2021/07/20 09:34:21;;;;;;;13.90;9.45;;;;;;;26.89;37.71;97620.78;5089448;28;20036;-79
2021/07/20 09:37:00;;;;;;;10.10;8.77;;;;;;;26.79;37.90;97613.25;5052188;28;20036;-78
2021/07/20 09:39:47;;;;;;;19.80;9.70;;;;;;;26.92;37.10;97614.75;5067381;28;20028;-78
2021/07/20 09:42:45;;;;;;;12.13;9.27;;;;;;;26.43;37.81;97623.69;5047873;28;20036;-77
2021/07/20 09:45:14;;;;;;;19.55;9.02;;;;;;;27.02;36.55;97622.28;5070761;28;20387;-78
2021/07/20 09:47:40;;;;;;;10.93;9.23;;;;;;;27.60;34.70;97616.50;5052367;28;20417;-79
2021/07/20 09:50:16;;;;;;;11.07;9.13;;;;;;;27.46;36.83;97605.47;5068654;28;20089;-78
2021/07/20 09:53:06;;;;;;;12.68;10.32;;;;;;;27.13;36.15;97609.19;5053535;28;20439;-78
2021/07/20 09:55:36;;;;;;;10.57;8.95;;;;;;;27.16;37.11;97605.84;5087324;28;20032;-78
2021/07/20 09:58:27;;;;;;;10.25;8.50;;;;;;;27.04;34.43;97609.38;5071809;28;20438;-79
2021/07/20 10:01:19;;;;;;;11.35;8.27;;;;;;;27.55;36.05;97605.28;5051689;28;20024;-78
2021/07/20 10:03:49;;;;;;;9.73;8.02;;;;;;;27.61;34.51;97595.88;5070755;28;20032;-78
2021/07/20 10:06:30;;;;;;;9.43;7.80;;;;;;;27.27;35.77;97596.19;5054918;28;20032;-79
2021/07/20 10:08:58;;;;;;;10.32;8.82;;;;;;;27.68;36.64;97595.28;5078958;28;20536;-78
2021/07/20 10:11:31;;;;;;;11.05;9.13;;;;;;;28.20;34.36;97594.16;5044035;28;20454;-79
2021/07/20 10:14:00;;;;;;;11.82;9.00;;;;;;;28.23;34.69;97592.69;5034429;28;20437;-79
2021/07/20 10:17:09;;;;;;;10.75;9.65;;;;;;;27.84;36.17;97590.66;5068786;28;20036;-79
2021/07/20 10:19:45;;;;;;;11.00;9.10;;;;;;;27.82;36.67;97588.34;5025179;28;20036;-78
2021/07/20 10:22:14;;;;;;;10.90;8.73;;;;;;;27.76;36.26;97587.06;5048298;28;20082;-78
2021/07/20 10:25:14;;;;;;;9.95;8.35;;;;;;;27.63;34.78;97588.28;5069035;28;20086;-78
2021/07/20 10:27:39;;;;;;;9.85;8.82;;;;;;;28.21;33.84;97591.13;5052612;28;20477;-77
2021/07/20 10:30:09;;;;;;;10.90;9.02;;;;;;;28.31;34.39;97599.72;5053461;28;20038;-78
2021/07/20 10:33:10;;;;;;;9.23;8.18;;;;;;;28.56;32.22;97582.28;5066887;28;20652;-78
2021/07/20 10:35:39;;;;;;;14.95;8.68;;;;;;;28.18;35.82;97594.50;5053257;28;20081;-79
2021/07/20 10:38:08;;;;;;;11.18;8.63;;;;;;;27.72;35.53;97585.44;5053167;28;20462;-78
2021/07/20 10:40:37;;;;;;;10.50;8.80;;;;;;;27.21;34.87;97580.75;5069548;28;20090;-77
2021/07/20 10:43:15;;;;;;;9.52;8.52;;;;;;;27.22;35.68;97576.97;5037228;28;20127;-78
2021/07/20 10:45:42;;;;;;;9.77;8.73;;;;;;;27.66;34.72;97574.22;5053946;28;20071;-78
2021/07/20 10:48:11;;;;;;;11.65;9.00;;;;;;;27.49;34.00;97583.38;5069895;28;20457;-78
2021/07/20 10:51:01;;;;;;;10.85;9.45;;;;;;;27.56;35.02;97577.44;5033832;28;20032;-78
2021/07/20 10:53:48;;;;;;;10.02;8.70;;;;;;;28.19;34.72;97590.72;5046443;28;20280;-78
2021/07/20 10:56:25;;;;;;;10.90;9.25;;;;;;;28.50;32.74;97586.38;5069914;28;20030;-79
2021/07/20 10:58:57;;;;;;;9.23;7.70;;;;;;;29.02;31.10;97583.53;5053510;28;20040;-79
2021/07/20 11:01:45;;;;;;;9.90;8.00;;;;;;;28.74;31.63;97579.19;5068874;28;20394;-79
2021/07/20 11:04:28;;;;;;;8.55;7.65;;;;;;;28.92;30.98;97577.59;5036480;28;20024;-79
2021/07/20 11:06:54;;;;;;;11.43;8.65;;;;;;;28.79;32.01;97572.75;5085432;28;20028;-78
2021/07/20 11:09:21;;;;;;;10.63;8.82;;;;;;;28.65;31.54;97578.63;5034370;28;20139;-79
2021/07/20 11:11:59;;;;;;;10.00;8.07;;;;;;;28.27;33.35;97572.13;5064170;28;20051;-78
2021/07/20 11:14:32;;;;;;;10.63;9.35;;;;;;;28.26;32.50;97571.34;5065763;28;20024;-78
2021/07/20 11:16:58;;;;;;;9.25;8.18;;;;;;;28.57;31.32;97570.47;5053143;28;20446;-79
2021/07/20 11:19:25;;;;;;;9.68;8.45;;;;;;;28.63;31.64;97556.78;5046758;28;21361;-79
2021/07/20 11:21:50;;;;;;;10.73;9.63;;;;;;;28.02;33.63;97567.03;5068543;28;20551;-79
2021/07/20 11:24:18;;;;;;;11.05;8.95;;;;;;;27.78;35.19;97562.66;5072855;28;20035;-79
2021/07/20 11:26:44;;;;;;;10.18;8.18;;;;;;;27.53;35.81;97551.38;5069110;28;20025;-79
2021/07/20 11:29:10;;;;;;;10.43;8.50;;;;;;;27.25;35.27;97570.94;5056382;28;20031;-78
2021/07/20 11:31:43;;;;;;;12.15;9.60;;;;;;;27.17;35.08;97561.16;5057669;28;20442;-79